Time;durP1;ratioP1;P1;durP2;ratioP2;P2;SDS_P1;SDS_P2;PMS_P1;PMS_P2;Temp;Humidity;BMP_temperature;BMP_pressure;BME280_temperature;BME280_humidity;BME280_pressure;Samples;Min_cycle;Max_cycle;Signal;HPM_P1;HPM_P2
2021/08/18 03:32:21;;;;;;;13.70;9.80;;;;;;;19.92;57.08;98944.84;8582539;22;20206;-81
2021/08/18 03:35:42;;;;;;;17.27;11.03;;;;;;;20.20;56.68;98950.81;8578320;23;20186;-81
2021/08/18 03:39:04;;;;;;;18.17;10.93;;;;;;;20.25;56.38;98950.88;8576711;23;20655;-81
2021/08/18 03:42:25;;;;;;;18.30;10.67;;;;;;;20.21;56.88;98944.25;8578451;23;20208;-81
2021/08/18 03:45:47;;;;;;;17.73;11.13;;;;;;;20.53;55.77;98935.97;8579501;23;20492;-82
2021/08/18 03:49:10;;;;;;;18.70;12.03;;;;;;;20.39;56.43;98938.34;8579982;23;20570;-81
2021/08/18 03:52:32;;;;;;;16.27;11.43;;;;;;;20.31;56.62;98947.06;8579054;23;20203;-81
2021/08/18 03:55:53;;;;;;;17.70;11.23;;;;;;;20.22;57.54;98961.53;8581249;23;20655;-81
2021/08/18 03:59:15;;;;;;;17.23;11.43;;;;;;;20.42;56.98;98942.47;8579255;23;20186;-81
2021/08/18 04:02:36;;;;;;;16.67;10.63;;;;;;;20.34;56.16;98957.47;8581135;23;20215;-81
2021/08/18 04:05:59;;;;;;;14.47;10.80;;;;;;;20.27;56.35;98945.94;8581353;23;20183;-81
2021/08/18 04:09:21;;;;;;;17.53;11.43;;;;;;;20.28;56.79;98946.78;8580730;23;20822;-81
2021/08/18 04:12:50;;;;;;;15.17;10.47;;;;;;;20.32;56.58;98945.16;8594157;23;20195;-81
2021/08/18 04:16:12;;;;;;;16.43;10.40;;;;;;;20.41;56.24;98957.25;8580122;23;20182;-81
2021/08/18 04:19:36;;;;;;;15.77;9.90;;;;;;;20.43;56.61;98960.56;8578807;23;20186;-81
2021/08/18 04:22:58;;;;;;;14.77;10.17;;;;;;;20.59;56.02;98962.31;8580048;23;20222;-81
2021/08/18 04:26:20;;;;;;;13.27;9.73;;;;;;;20.46;55.53;98958.09;8573765;23;20637;-83
2021/08/18 04:29:42;;;;;;;16.73;11.07;;;;;;;20.67;55.32;98967.28;8572803;23;20207;-82
2021/08/18 04:33:04;;;;;;;15.37;10.30;;;;;;;20.65;54.90;98969.47;8611138;23;20206;-80
2021/08/18 04:36:25;;;;;;;12.53;8.90;;;;;;;20.52;55.39;98962.53;8613641;23;20189;-81
2021/08/18 04:39:48;;;;;;;12.67;8.17;;;;;;;20.31;55.82;98966.25;8626759;23;20189;-81
2021/08/18 04:43:13;;;;;;;10.17;7.37;;;;;;;20.58;54.77;98963.41;8640271;22;20208;-81
2021/08/18 04:46:35;;;;;;;12.27;7.93;;;;;;;20.43;55.98;98971.50;8627175;23;20162;-82
2021/08/18 04:49:56;;;;;;;13.60;8.80;;;;;;;20.74;54.86;98965.16;8614439;23;20210;-82
2021/08/18 04:53:18;;;;;;;10.53;8.27;;;;;;;20.87;54.80;98972.88;8616243;22;20206;-82
2021/08/18 04:56:41;;;;;;;12.37;8.57;;;;;;;21.07;54.54;98973.81;8616614;23;20177;-82
2021/08/18 05:00:04;;;;;;;12.50;9.03;;;;;;;20.93;55.19;98972.63;8615901;23;20480;-81
2021/08/18 05:03:26;;;;;;;13.17;9.93;;;;;;;21.11;54.75;98969.44;8615599;22;20209;-82
2021/08/18 05:06:47;;;;;;;14.63;10.07;;;;;;;21.02;55.30;98982.03;8610096;23;20190;-82
2021/08/18 05:10:10;;;;;;;13.87;10.57;;;;;;;20.77;56.51;98979.13;8615452;23;20636;-83
2021/08/18 05:13:33;;;;;;;13.40;8.77;;;;;;;21.00;55.84;98980.63;8616283;23;20620;-82
2021/08/18 05:16:54;;;;;;;13.03;9.80;;;;;;;20.99;56.44;98977.06;8615998;23;20189;-82
2021/08/18 05:20:16;;;;;;;15.70;10.40;;;;;;;20.64;56.69;98973.28;8614560;22;20178;-82
2021/08/18 05:23:38;;;;;;;14.40;10.03;;;;;;;20.73;56.38;98972.53;8616821;23;20658;-83
2021/08/18 05:27:00;;;;;;;13.17;9.37;;;;;;;20.45;56.95;98997.56;8615262;23;20186;-80
2021/08/18 05:30:22;;;;;;;13.33;10.40;;;;;;;20.27;57.74;98988.94;8615520;22;20292;-83
2021/08/18 05:33:44;;;;;;;12.43;8.23;;;;;;;20.60;56.65;98994.09;8616682;23;20166;-82
2021/08/18 05:37:06;;;;;;;10.73;8.13;;;;;;;19.45;59.81;98999.38;8615326;23;20181;-81
2021/08/18 05:40:27;;;;;;;11.37;8.00;;;;;;;20.01;59.38;98998.00;8613565;22;20182;-82
2021/08/18 05:43:49;;;;;;;11.33;8.73;;;;;;;19.86;60.41;98997.88;8617640;23;20185;-82
2021/08/18 05:47:12;;;;;;;12.10;7.90;;;;;;;20.32;58.99;98998.00;8617434;23;20174;-82
2021/08/18 05:50:33;;;;;;;10.23;7.90;;;;;;;20.17;58.55;98945.88;8619974;22;20202;-82
2021/08/18 05:53:55;;;;;;;11.40;7.90;;;;;;;20.74;57.77;99007.06;8621884;23;20181;-82
2021/08/18 05:57:17;;;;;;;11.87;8.47;;;;;;;20.69;58.01;98995.25;8621662;23;20186;-82
2021/08/18 06:00:38;;;;;;;11.73;8.50;;;;;;;20.21;59.08;99006.41;8621732;22;20382;-82
2021/08/18 06:04:01;;;;;;;11.70;8.90;;;;;;;20.48;59.02;98993.47;8636371;23;20182;-81
2021/08/18 06:07:23;;;;;;;13.63;9.17;;;;;;;20.60;58.96;98980.38;8624407;23;20261;-81
2021/08/18 06:10:44;;;;;;;13.97;9.73;;;;;;;20.24;59.60;99001.25;8617097;22;20202;-82
2021/08/18 06:14:06;;;;;;;11.60;9.07;;;;;;;20.69;58.80;98998.78;8615836;23;20244;-83
2021/08/18 06:17:28;;;;;;;12.43;9.20;;;;;;;20.80;58.27;98991.47;8614786;23;20189;-82
2021/08/18 06:20:51;;;;;;;11.27;9.00;;;;;;;20.79;58.24;98990.63;8615873;22;20204;-82
2021/08/18 06:24:19;;;;;;;11.37;9.07;;;;;;;20.81;57.58;98963.78;8615428;23;20182;-82
2021/08/18 06:27:41;;;;;;;13.77;9.87;;;;;;;20.81;58.05;98985.72;8615996;23;20235;-82
2021/08/18 06:31:03;;;;;;;12.33;9.20;;;;;;;20.53;58.29;98953.25;8627091;22;20205;-81
2021/08/18 06:34:24;;;;;;;14.27;9.60;;;;;;;20.83;58.22;98967.91;8652560;22;20170;-81
2021/08/18 06:37:47;;;;;;;15.63;9.93;;;;;;;21.11;57.62;98990.56;8622216;22;20179;-83
2021/08/18 06:41:09;;;;;;;12.77;9.17;;;;;;;21.20;57.33;98998.81;8614408;22;20206;-83
2021/08/18 06:44:30;;;;;;;14.40;9.70;;;;;;;20.97;58.02;98989.38;8615300;23;20182;-82
2021/08/18 06:47:52;;;;;;;12.23;8.83;;;;;;;20.62;57.32;98913.28;8614491;23;20182;-83
2021/08/18 06:51:15;;;;;;;11.37;8.20;;;;;;;21.08;57.29;98999.31;8615284;22;20205;-82
2021/08/18 06:54:39;;;;;;;9.73;7.70;;;;;;;21.24;55.73;99001.84;8617654;23;20181;-82
2021/08/18 06:58:00;;;;;;;11.50;8.43;;;;;;;20.94;58.47;99000.91;8618156;23;20622;-82
2021/08/18 07:01:22;;;;;;;9.57;7.47;;;;;;;21.13;56.75;98998.22;8618163;22;20550;-82
2021/08/18 07:04:43;;;;;;;9.50;7.50;;;;;;;21.16;55.09;98998.81;8618201;23;20182;-83
2021/08/18 07:08:05;;;;;;;12.63;9.00;;;;;;;20.91;57.06;98976.75;8620066;23;20655;-84
2021/08/18 07:11:28;;;;;;;9.50;7.80;;;;;;;21.17;55.82;98977.41;8618872;22;20259;-83
2021/08/18 07:14:50;;;;;;;13.10;9.00;;;;;;;21.33;55.27;99002.16;8618216;23;20642;-83
2021/08/18 07:18:11;;;;;;;11.87;8.67;;;;;;;20.65;57.51;98996.88;8617436;23;20184;-82
2021/08/18 07:21:34;;;;;;;9.73;8.30;;;;;;;20.85;57.79;98995.06;8619319;22;20219;-83
2021/08/18 07:24:56;;;;;;;9.80;7.90;;;;;;;21.17;57.16;98998.50;8618549;23;20780;-83
2021/08/18 07:28:19;;;;;;;11.73;8.07;;;;;;;21.10;56.99;98994.41;8617131;23;20585;-83
2021/08/18 07:31:40;;;;;;;10.93;8.20;;;;;;;21.14;56.23;98990.84;8617075;22;20207;-83
2021/08/18 07:35:02;;;;;;;10.77;8.20;;;;;;;21.33;56.27;98984.59;8617841;23;20228;-83
2021/08/18 07:38:24;;;;;;;11.60;8.07;;;;;;;21.38;56.44;98987.38;8615795;23;20178;-83
2021/08/18 07:41:45;;;;;;;11.40;7.80;;;;;;;21.74;55.68;98985.53;8617226;22;20205;-83
2021/08/18 07:45:09;;;;;;;10.77;8.33;;;;;;;21.29;57.30;98975.25;8617120;23;20188;-83
2021/08/18 07:48:31;;;;;;;11.07;7.90;;;;;;;21.71;55.74;98964.94;8616037;23;20185;-82
2021/08/18 07:51:53;;;;;;;11.27;7.43;;;;;;;21.75;55.99;98985.28;8617386;22;20289;-85
2021/08/18 07:55:14;;;;;;;8.23;7.20;;;;;;;22.16;54.67;98984.19;8638815;23;20182;-83
2021/08/18 07:58:36;;;;;;;8.17;6.67;;;;;;;22.07;53.98;98980.34;8638261;23;20182;-82
2021/08/18 08:01:59;;;;;;;10.23;6.63;;;;;;;22.18;54.34;98972.94;8639460;22;20214;-82
2021/08/18 08:05:21;;;;;;;10.50;7.20;;;;;;;22.62;53.33;98979.50;8620466;23;20179;-83
2021/08/18 08:08:42;;;;;;;8.33;7.10;;;;;;;22.49;51.73;98980.09;8615942;23;20191;-82
2021/08/18 08:12:05;;;;;;;10.07;6.80;;;;;;;22.12;54.25;98979.53;8617342;22;20650;-83
2021/08/18 08:15:27;;;;;;;7.53;6.10;;;;;;;22.47;53.14;98965.78;8616720;23;20193;-83
2021/08/18 08:18:49;;;;;;;7.93;6.20;;;;;;;22.71;52.26;98981.41;8616071;23;20182;-82
2021/08/18 08:22:11;;;;;;;7.10;6.40;;;;;;;23.21;49.79;98973.00;8616614;22;20199;-82
2021/08/18 08:25:33;;;;;;;8.57;6.40;;;;;;;23.06;51.07;98962.03;8616870;23;20185;-82
2021/08/18 08:28:58;;;;;;;7.00;6.30;;;;;;;23.34;50.12;98966.88;8615587;23;20629;-85
2021/08/18 08:32:19;;;;;;;8.40;5.77;;;;;;;23.01;51.35;98975.00;8618007;22;20210;-83
2021/08/18 08:35:43;;;;;;;5.80;5.13;;;;;;;23.13;50.86;98967.25;8615532;23;20185;-81
2021/08/18 08:39:04;;;;;;;6.07;5.00;;;;;;;22.77;50.66;98971.22;8618020;23;20205;-84
2021/08/18 08:42:28;;;;;;;5.07;4.57;;;;;;;22.85;51.28;98976.97;8617453;22;20532;-84
2021/08/18 08:45:49;;;;;;;5.00;4.30;;;;;;;23.17;50.29;98974.66;8616038;23;20168;-84
2021/08/18 08:49:11;;;;;;;6.87;4.27;;;;;;;22.94;50.86;98969.78;8616468;23;20190;-82
2021/08/18 08:52:35;;;;;;;4.67;3.97;;;;;;;22.66;51.32;98964.91;8620355;22;20213;-80
2021/08/18 08:55:56;;;;;;;5.67;3.90;;;;;;;22.95;51.44;98976.91;8616957;23;20183;-81
2021/08/18 08:59:18;;;;;;;5.30;4.00;;;;;;;22.81;50.77;98969.53;8618520;23;20178;-79
2021/08/18 09:02:40;;;;;;;4.17;3.77;;;;;;;22.59;51.90;98980.88;8621593;22;20206;-80
2021/08/18 09:06:05;;;;;;;5.50;3.70;;;;;;;23.10;50.82;98979.63;8622437;23;20174;-81
2021/08/18 09:09:28;;;;;;;4.07;3.23;;;;;;;23.04;50.65;98978.00;8621817;23;20214;-80
2021/08/18 09:12:50;;;;;;;4.90;3.10;;;;;;;23.13;50.23;98981.00;8622323;22;20544;-81
2021/08/18 09:16:13;;;;;;;4.33;3.87;;;;;;;22.61;52.04;98986.09;8622254;23;20189;-81
2021/08/18 09:19:34;;;;;;;3.57;3.27;;;;;;;22.63;52.00;98975.66;8621600;23;20186;-81
2021/08/18 09:22:58;;;;;;;3.50;3.07;;;;;;;23.02;50.89;98982.13;8622051;22;20522;-80
2021/08/18 09:26:22;;;;;;;2.47;2.23;;;;;;;22.70;52.00;98982.50;8621144;23;20189;-81
2021/08/18 09:29:45;;;;;;;2.57;1.80;;;;;;;22.75;52.01;98978.91;8617836;23;20182;-82
2021/08/18 09:33:09;;;;;;;2.30;2.10;;;;;;;22.85;53.32;98985.22;8617868;22;20288;-81
2021/08/18 09:36:33;;;;;;;2.17;1.90;;;;;;;23.09;52.93;98978.00;8621199;23;20252;-80
2021/08/18 09:39:55;;;;;;;2.00;1.90;;;;;;;23.06;54.45;98978.53;8619659;23;20552;-81
2021/08/18 09:43:21;;;;;;;1.77;1.40;;;;;;;22.79;54.26;98975.34;8620701;22;20194;-80
2021/08/18 09:46:43;;;;;;;1.87;1.50;;;;;;;22.89;54.58;98974.50;8622134;23;20175;-81
2021/08/18 09:50:05;;;;;;;1.77;1.60;;;;;;;23.19;53.62;98974.41;8616034;23;20669;-80
2021/08/18 09:53:28;;;;;;;3.37;1.87;;;;;;;23.17;54.12;98977.41;8622484;22;20212;-80
2021/08/18 09:56:50;;;;;;;1.90;1.80;;;;;;;23.11;53.54;98981.28;8623255;23;20194;-80
2021/08/18 10:00:14;;;;;;;4.23;2.07;;;;;;;22.93;54.44;98970.88;8623570;23;20181;-80
2021/08/18 10:03:37;;;;;;;3.23;2.10;;;;;;;22.96;54.38;98975.81;8624996;22;20241;-80
2021/08/18 10:07:01;;;;;;;3.97;2.50;;;;;;;23.00;53.95;98979.66;8626959;23;20186;-81
2021/08/18 10:10:23;;;;;;;3.00;2.70;;;;;;;22.50;53.79;98987.22;8640953;22;20182;-80
2021/08/18 10:13:45;;;;;;;4.80;1.80;;;;;;;21.88;56.37;98998.47;8639445;23;20174;-82
2021/08/18 10:17:08;;;;;;;1.33;1.23;;;;;;;22.36;56.66;98986.94;8619097;23;20647;-80
2021/08/18 10:20:30;;;;;;;1.10;1.10;;;;;;;22.57;56.07;98993.25;8615871;22;20187;-80
2021/08/18 10:23:57;;;;;;;2.70;1.30;;;;;;;22.91;57.22;98967.59;8619531;23;20235;-80
2021/08/18 10:27:46;;;;;;;1.53;1.33;;;;;;;23.42;56.81;98991.06;8621353;23;20164;-80
2021/08/18 10:31:08;;;;;;;0.70;0.70;;;;;;;24.07;52.00;98993.41;8619256;22;20210;-80
2021/08/18 10:34:35;;;;;;;1.13;1.03;;;;;;;24.55;50.80;98973.13;8621255;23;20484;-80
2021/08/18 10:38:30;;;;;;;0.80;0.80;;;;;;;25.22;48.60;98967.44;8622296;23;20184;-80
2021/08/18 10:41:59;;;;;;;1.23;1.13;;;;;;;23.63;52.04;98934.78;8620475;22;20197;-80
2021/08/18 10:45:40;;;;;;;1.37;1.10;;;;;;;24.20;50.85;98967.94;8619776;23;20189;-80
2021/08/18 10:49:03;;;;;;;0.90;0.90;;;;;;;23.97;50.68;98957.69;8619023;23;20192;-80
2021/08/18 10:52:49;;;;;;;0.83;0.83;;;;;;;23.36;52.00;98963.84;8619685;22;20210;-80
2021/08/18 10:56:42;;;;;;;2.20;1.30;;;;;;;23.53;53.72;98967.88;8611976;23;20181;-80
2021/08/18 11:00:14;;;;;;;1.73;1.63;;;;;;;23.31;54.27;98963.88;8618105;23;20190;-80
2021/08/18 11:03:37;;;;;;;1.60;1.50;;;;;;;23.38;53.97;98967.97;8619148;23;20166;-80
2021/08/18 11:06:58;;;;;;;2.33;1.90;;;;;;;23.69;53.12;98966.69;8618924;23;20184;-80
2021/08/18 11:10:21;;;;;;;1.83;1.73;;;;;;;23.99;52.19;98960.97;8618016;22;20184;-80
2021/08/18 11:13:45;;;;;;;2.30;2.07;;;;;;;23.84;51.12;98960.25;8618121;23;20203;-80
2021/08/18 11:17:07;;;;;;;1.90;1.80;;;;;;;23.60;51.93;98960.13;8618225;23;20190;-80
2021/08/18 11:20:30;;;;;;;2.00;1.90;;;;;;;23.72;50.49;98959.78;8630895;22;20618;-80
2021/08/18 11:23:54;;;;;;;1.60;1.50;;;;;;;23.88;51.06;98959.41;8632724;23;20518;-80
2021/08/18 11:27:19;;;;;;;1.67;1.57;;;;;;;24.00;50.30;98951.59;8618968;23;20632;-80
2021/08/18 11:30:41;;;;;;;1.97;1.80;;;;;;;24.22;51.43;98938.19;8617342;22;20209;-80
2021/08/18 11:34:03;;;;;;;1.50;1.40;;;;;;;24.64;49.33;98951.28;8617996;23;20186;-80
2021/08/18 11:37:26;;;;;;;1.73;1.63;;;;;;;24.54;48.04;98954.94;8622073;23;20181;-80
2021/08/18 11:40:48;;;;;;;4.60;1.77;;;;;;;24.89;46.95;98940.00;8617963;22;20249;-80
2021/08/18 11:44:25;;;;;;;1.70;1.60;;;;;;;24.38;47.07;98945.19;8621292;23;20263;-80
2021/08/18 11:47:46;;;;;;;1.63;1.53;;;;;;;24.43;48.21;98949.84;8633692;23;20166;-81
2021/08/18 11:51:11;;;;;;;1.70;1.60;;;;;;;24.62;47.47;98951.59;8626304;22;20208;-80
2021/08/18 11:54:33;;;;;;;2.00;1.80;;;;;;;24.50;47.37;98942.88;8619525;23;20190;-80
2021/08/18 11:57:58;;;;;;;2.20;2.00;;;;;;;24.33;48.05;98950.75;8618560;23;20191;-80
2021/08/18 12:01:22;;;;;;;2.00;1.80;;;;;;;24.12;47.72;98938.25;8631261;22;20197;-80
2021/08/18 12:04:44;;;;;;;1.83;1.60;;;;;;;23.22;48.92;98908.63;8617997;23;20184;-80
2021/08/18 12:08:07;;;;;;;2.40;1.90;;;;;;;23.97;49.16;98948.59;8617614;23;20185;-80
2021/08/18 12:11:36;;;;;;;2.20;2.10;;;;;;;24.28;48.67;98937.03;8615873;22;20286;-80
2021/08/18 12:15:08;;;;;;;2.53;2.17;;;;;;;24.28;47.14;98930.69;8617922;23;20169;-80
2021/08/18 12:18:33;;;;;;;1.90;1.80;;;;;;;25.04;46.05;98943.38;8616868;23;20177;-80
2021/08/18 12:22:14;;;;;;;1.80;1.70;;;;;;;25.52;45.52;98928.38;8617145;22;20196;-81
2021/08/18 12:25:39;;;;;;;2.50;2.13;;;;;;;26.01;43.55;98931.50;8618038;23;20168;-80
2021/08/18 12:29:01;;;;;;;2.10;1.90;;;;;;;25.70;44.20;98926.72;8616084;23;20517;-80
2021/08/18 12:32:23;;;;;;;1.47;1.37;;;;;;;25.21;43.97;98934.59;8615874;22;20205;-85
2021/08/18 12:35:46;;;;;;;4.63;4.23;;;;;;;25.22;46.09;98939.00;8623079;23;20178;-81
2021/08/18 12:39:08;;;;;;;7.43;6.73;;;;;;;25.34;44.71;98896.06;8616861;23;20189;-81
2021/08/18 12:42:32;;;;;;;2.80;2.60;;;;;;;25.75;44.09;98926.66;8616961;22;20205;-81
2021/08/18 12:45:53;;;;;;;2.80;2.60;;;;;;;25.81;44.72;98901.41;8622164;23;20765;-81
2021/08/18 12:49:28;;;;;;;2.73;2.53;;;;;;;25.41;45.10;98915.84;8618386;23;20179;-81
2021/08/18 12:52:51;;;;;;;1.87;1.77;;;;;;;25.25;45.17;98908.88;8617518;22;20204;-81
2021/08/18 12:56:13;;;;;;;1.60;1.50;;;;;;;24.52;47.23;98888.25;8618037;23;20180;-81
2021/08/18 12:59:35;;;;;;;1.50;1.40;;;;;;;25.03;47.55;98927.09;8617078;23;20632;-80
2021/08/18 13:02:57;;;;;;;2.20;2.10;;;;;;;24.78;49.73;98916.41;8617353;22;20222;-80
2021/08/18 13:06:19;;;;;;;1.87;1.77;;;;;;;24.59;50.53;98861.19;8616505;23;20184;-80
2021/08/18 13:09:42;;;;;;;1.63;1.53;;;;;;;25.31;48.19;98899.41;8616264;23;20183;-83
2021/08/18 13:13:04;;;;;;;1.70;1.50;;;;;;;25.63;46.56;98910.53;8615709;22;20639;-80
2021/08/18 13:16:26;;;;;;;1.60;1.50;;;;;;;26.43;44.95;98909.19;8616410;23;20179;-81
2021/08/18 13:19:47;;;;;;;1.73;1.63;;;;;;;26.55;45.01;98905.97;8615424;23;20174;-80
2021/08/18 13:23:09;;;;;;;2.50;1.97;;;;;;;26.59;43.56;98893.97;8615952;22;20216;-80
2021/08/18 13:26:33;;;;;;;1.50;1.40;;;;;;;26.59;42.75;98879.31;8616482;23;20517;-80
2021/08/18 13:29:55;;;;;;;1.80;1.70;;;;;;;25.78;45.79;98899.25;8614882;23;20183;-80
2021/08/18 13:33:18;;;;;;;2.70;1.70;;;;;;;25.54;45.49;98903.25;8614902;22;20206;-80
2021/08/18 13:36:40;;;;;;;2.47;1.37;;;;;;;26.26;43.49;98886.00;8614732;23;20180;-80
2021/08/18 13:40:01;;;;;;;2.10;1.70;;;;;;;25.93;44.89;98881.63;8615917;23;20188;-80
2021/08/18 13:43:24;;;;;;;1.67;1.57;;;;;;;26.11;44.68;98883.50;8617423;22;20240;-81
2021/08/18 13:46:46;;;;;;;1.20;1.13;;;;;;;26.35;43.51;98870.34;8615734;23;20629;-80
2021/08/18 13:50:08;;;;;;;2.90;1.20;;;;;;;25.96;43.88;98843.16;8614147;23;20182;-80
2021/08/18 13:53:30;;;;;;;1.60;1.50;;;;;;;25.47;44.72;98883.44;8614868;22;20203;-81
2021/08/18 13:56:54;;;;;;;1.50;1.40;;;;;;;25.36;45.32;98868.19;8615058;23;20234;-81
2021/08/18 14:00:17;;;;;;;1.60;1.50;;;;;;;25.72;44.33;98874.78;8614075;22;20184;-82
2021/08/18 14:03:39;;;;;;;1.70;1.60;;;;;;;25.74;45.04;98873.38;8615751;23;20183;-81
2021/08/18 14:07:01;;;;;;;2.73;1.57;;;;;;;25.68;43.50;98838.66;8617034;23;20181;-82
2021/08/18 14:10:27;;;;;;;1.60;1.50;;;;;;;25.85;43.13;98865.72;8615775;22;20199;-81
2021/08/18 14:13:49;;;;;;;1.77;1.47;;;;;;;26.22;43.47;98841.56;8615415;23;20182;-80
2021/08/18 14:17:11;;;;;;;1.83;1.33;;;;;;;26.07;43.21;98863.16;8616361;23;20179;-81
2021/08/18 14:20:34;;;;;;;2.43;1.30;;;;;;;26.18;42.00;98854.38;8630103;22;20204;-81
2021/08/18 14:23:55;;;;;;;1.13;1.07;;;;;;;26.51;42.47;98850.41;8614680;23;20177;-81
2021/08/18 14:27:17;;;;;;;1.80;1.70;;;;;;;26.27;42.64;98843.41;8614658;23;20182;-81
2021/08/18 14:30:39;;;;;;;1.47;1.33;;;;;;;26.53;42.12;98848.16;8613916;22;20217;-81
2021/08/18 14:34:02;;;;;;;2.50;2.03;;;;;;;26.38;42.59;98837.41;8614727;23;20182;-81
2021/08/18 14:37:23;;;;;;;1.90;1.60;;;;;;;26.25;43.92;98848.44;8615926;23;20185;-81
2021/08/18 14:40:45;;;;;;;2.27;1.47;;;;;;;26.14;43.78;98847.00;8615876;22;20257;-81
2021/08/18 14:44:07;;;;;;;2.63;1.40;;;;;;;25.63;44.36;98847.03;8630903;23;20190;-81
2021/08/18 14:47:29;;;;;;;2.47;1.50;;;;;;;25.94;43.14;98848.16;8615094;23;20490;-81
2021/08/18 14:50:52;;;;;;;1.30;1.30;;;;;;;26.43;42.31;98839.25;8613372;22;20686;-81
2021/08/18 14:54:16;;;;;;;1.53;1.43;;;;;;;26.23;42.31;98837.69;8614429;23;20206;-81
2021/08/18 14:57:37;;;;;;;2.03;1.50;;;;;;;26.22;42.53;98816.69;8614673;23;20191;-81
2021/08/18 15:00:59;;;;;;;1.77;1.53;;;;;;;26.47;42.14;98838.31;8612913;22;20205;-83
2021/08/18 15:04:21;;;;;;;1.50;1.40;;;;;;;26.43;42.28;98834.50;8614284;23;20181;-81
2021/08/18 15:07:44;;;;;;;1.60;1.50;;;;;;;26.69;41.55;98832.91;8613167;23;20193;-80
2021/08/18 15:11:06;;;;;;;1.57;1.47;;;;;;;26.60;41.20;98833.94;8614647;22;20201;-80
2021/08/18 15:14:28;;;;;;;1.87;1.43;;;;;;;26.34;42.26;98828.06;8630739;23;20513;-80
2021/08/18 15:17:49;;;;;;;1.40;1.30;;;;;;;26.07;42.41;98841.84;8617260;23;20645;-80
2021/08/18 15:21:11;;;;;;;1.50;1.40;;;;;;;25.92;43.10;98835.78;8616477;22;20659;-80
2021/08/18 15:24:34;;;;;;;1.47;1.37;;;;;;;25.88;43.50;98835.53;8617411;23;20188;-82
2021/08/18 15:27:56;;;;;;;1.77;1.67;;;;;;;25.94;43.39;98839.03;8616553;23;20203;-80
2021/08/18 15:31:17;;;;;;;1.97;1.80;;;;;;;25.03;45.72;98844.34;8614313;22;20208;-79
2021/08/18 15:34:40;;;;;;;1.70;1.60;;;;;;;24.81;45.97;98844.91;8614883;23;20199;-79
2021/08/18 15:38:01;;;;;;;4.07;1.80;;;;;;;24.95;45.23;98828.47;8615210;23;20177;-80
2021/08/18 15:41:24;;;;;;;1.77;1.67;;;;;;;25.14;45.61;98846.63;8614884;22;20211;-79
2021/08/18 15:44:46;;;;;;;2.03;1.80;;;;;;;24.99;45.66;98844.09;8615070;23;20191;-79
2021/08/18 15:48:08;;;;;;;1.73;1.60;;;;;;;25.47;44.61;98834.56;8628450;23;20184;-79
2021/08/18 15:51:29;;;;;;;3.53;3.23;;;;;;;26.43;43.73;98831.75;8614987;22;20656;-79
2021/08/18 15:54:51;;;;;;;2.63;2.43;;;;;;;26.60;42.67;98823.69;8615176;23;20207;-80
2021/08/18 15:58:14;;;;;;;24.27;21.93;;;;;;;26.74;41.90;98826.44;8628567;22;20186;-79
2021/08/18 16:01:35;;;;;;;2.07;1.67;;;;;;;26.17;42.36;98816.78;8615208;22;20537;-79
2021/08/18 16:04:57;;;;;;;1.80;1.70;;;;;;;26.01;42.96;98820.97;8628574;22;20177;-80
2021/08/18 16:08:19;;;;;;;2.47;2.27;;;;;;;25.38;43.24;98759.09;8615180;23;20184;-79
2021/08/18 16:11:41;;;;;;;2.60;2.40;;;;;;;25.74;43.42;98812.59;8616414;22;20656;-79
2021/08/18 16:15:06;;;;;;;5.67;5.17;;;;;;;26.06;43.60;98811.75;8616332;23;20293;-79
2021/08/18 16:18:29;;;;;;;3.37;2.37;;;;;;;26.14;44.04;98809.09;8615251;23;20200;-80
2021/08/18 16:21:51;;;;;;;1.97;1.77;;;;;;;25.53;44.22;98807.69;8616266;22;20526;-80
2021/08/18 16:25:12;;;;;;;4.20;2.20;;;;;;;25.78;43.91;98799.78;8615491;23;20174;-79
2021/08/18 16:28:34;;;;;;;1.90;1.80;;;;;;;25.47;45.07;98806.97;8615251;23;20182;-79
2021/08/18 16:31:57;;;;;;;2.30;2.10;;;;;;;25.81;43.62;98795.59;8610318;22;20221;-80
2021/08/18 16:35:19;;;;;;;2.70;1.90;;;;;;;25.35;44.19;98787.28;8613385;23;20251;-79
2021/08/18 16:38:40;;;;;;;3.00;1.90;;;;;;;25.48;44.72;98789.28;8614676;23;20183;-79
2021/08/18 16:42:02;;;;;;;2.90;1.97;;;;;;;25.20;44.96;98794.97;8619134;22;20566;-80
2021/08/18 16:45:24;;;;;;;2.53;2.07;;;;;;;25.47;44.11;98784.88;8615938;23;20183;-80
2021/08/18 16:48:47;;;;;;;2.33;2.00;;;;;;;25.92;43.53;98775.00;8613420;23;20182;-79
2021/08/18 16:52:09;;;;;;;2.20;2.00;;;;;;;25.69;44.48;98787.81;8614582;22;20346;-80
2021/08/18 16:55:31;;;;;;;3.37;2.03;;;;;;;25.40;44.97;98780.84;8617061;23;20172;-79
2021/08/18 16:58:52;;;;;;;3.60;3.03;;;;;;;25.63;44.95;98788.19;8615340;23;20191;-79
2021/08/18 17:02:14;;;;;;;3.70;2.60;;;;;;;25.74;44.07;98789.66;8615649;22;20559;-79
2021/08/18 17:05:38;;;;;;;6.47;5.20;;;;;;;25.89;44.21;98781.91;8615644;23;20181;-79
2021/08/18 17:09:01;;;;;;;2.10;1.60;;;;;;;25.22;45.05;98793.53;8616826;23;20250;-79
2021/08/18 17:12:23;;;;;;;3.10;1.80;;;;;;;25.45;44.36;98791.81;8615378;22;20220;-80
2021/08/18 17:15:45;;;;;;;2.37;1.80;;;;;;;25.30;44.47;98781.84;8620093;23;20517;-79
2021/08/18 17:19:06;;;;;;;2.13;1.93;;;;;;;24.57;46.29;98794.50;8617664;23;20182;-80
2021/08/18 17:22:32;;;;;;;15.10;10.33;;;;;;;24.98;45.87;98781.78;8617024;22;20201;-80
2021/08/18 17:25:54;;;;;;;3.37;2.40;;;;;;;25.30;45.63;98784.59;8617308;23;20218;-80
2021/08/18 17:29:15;;;;;;;10.70;7.23;;;;;;;25.68;44.83;98782.59;8616958;23;20653;-80
2021/08/18 17:32:37;;;;;;;4.13;3.60;;;;;;;25.48;44.79;98783.75;8616242;22;20209;-80
2021/08/18 17:35:59;;;;;;;20.63;14.53;;;;;;;25.26;45.18;98789.06;8617236;23;20192;-80
2021/08/18 17:39:22;;;;;;;10.67;7.60;;;;;;;25.10;44.87;98792.34;8618194;23;20502;-79
2021/08/18 17:42:44;;;;;;;5.50;4.80;;;;;;;25.60;44.65;98792.38;8620127;22;20202;-80
2021/08/18 17:46:06;;;;;;;7.43;5.70;;;;;;;25.41;44.52;98794.38;8629458;23;20173;-81
2021/08/18 17:49:28;;;;;;;13.30;9.93;;;;;;;25.50;44.16;98792.56;8650221;23;20171;-81
2021/08/18 17:52:51;;;;;;;4.20;2.63;;;;;;;25.35;44.58;98759.69;8627310;22;20218;-92
2021/08/18 17:56:54;;;;;;;8.60;4.87;;;;;;;25.32;45.75;98795.34;8630276;23;20191;-92
2021/08/18 18:00:21;;;;;;;3.40;3.10;;;;;;;24.45;44.85;98636.94;8632338;23;20601;-93
2021/08/18 18:03:45;;;;;;;3.00;2.70;;;;;;;25.16;45.33;98758.88;8632821;23;20190;-91
2021/08/18 18:07:06;;;;;;;2.50;2.30;;;;;;;24.73;44.66;98707.66;8605735;23;20174;-92
2021/08/18 18:10:29;;;;;;;2.93;1.90;;;;;;;25.09;45.47;98791.53;8631926;22;20518;-91
2021/08/18 18:13:54;;;;;;;3.03;2.10;;;;;;;24.40;45.99;98666.50;8630778;23;20214;-91
2021/08/18 18:17:20;;;;;;;2.73;2.10;;;;;;;24.54;45.70;98672.94;8632562;23;20175;-92
2021/08/18 18:20:42;;;;;;;2.80;1.93;;;;;;;24.55;47.34;98757.25;8631748;23;20177;-92
2021/08/18 18:24:07;;;;;;;2.37;2.17;;;;;;;24.24;46.33;98693.44;8631883;23;20180;-91
2021/08/18 18:27:32;;;;;;;3.67;3.30;;;;;;;24.52;46.66;98815.75;8631859;23;20300;-91
2021/08/18 18:30:57;;;;;;;4.27;3.70;;;;;;;24.75;46.71;98821.28;8631449;23;20173;-91
2021/08/18 18:34:21;;;;;;;3.70;2.90;;;;;;;24.14;46.90;98756.94;8631256;23;20218;-91
2021/08/18 18:37:43;;;;;;;2.77;2.57;;;;;;;24.08;46.45;98658.94;8631751;23;20180;-91
2021/08/18 18:41:32;;;;;;;2.70;2.07;;;;;;;24.46;46.49;98740.56;8633342;23;20185;-91
2021/08/18 18:44:54;;;;;;;2.63;2.40;;;;;;;24.65;46.40;98773.72;8617005;23;20174;-91
2021/08/18 18:48:18;;;;;;;3.20;2.30;;;;;;;24.04;49.29;98746.06;8619355;23;20241;-90
2021/08/18 18:51:44;;;;;;;2.10;1.90;;;;;;;24.81;48.71;98775.97;8634134;23;20180;-90
2021/08/18 18:55:07;;;;;;;2.10;2.00;;;;;;;24.66;49.44;98791.91;8634349;23;20206;-90
2021/08/18 18:58:30;;;;;;;4.37;2.30;;;;;;;24.23;49.18;98726.81;8619244;23;20176;-90
2021/08/18 19:01:53;;;;;;;2.87;2.17;;;;;;;24.29;51.11;98792.59;8607410;23;20176;-90
2021/08/18 19:05:17;;;;;;;2.53;2.30;;;;;;;23.76;51.58;98762.56;8593842;23;20729;-91
2021/08/18 19:08:42;;;;;;;3.63;2.40;;;;;;;23.65;51.54;98741.78;8620169;23;20628;-92
2021/08/18 19:12:05;;;;;;;2.60;2.40;;;;;;;23.73;53.23;98818.25;8633887;23;20290;-91
2021/08/18 19:15:27;;;;;;;2.90;2.27;;;;;;;24.10;52.43;98815.69;8634749;23;20199;-91
2021/08/18 19:18:49;;;;;;;4.87;2.30;;;;;;;23.23;55.57;98858.00;8633894;23;20642;-90
2021/08/18 19:22:11;;;;;;;5.03;2.60;;;;;;;22.80;52.98;98762.53;8634289;23;20184;-92